Aberdeen, Ohio
Current Conditions -  °F | °C
As of 1:55 PM on Friday 24 Oct 2014 (Local Time) from KFGX Reporting Station
Clear Clear  
Wind Chill: 61°   Ceiling: Unl
Heat Index: 61°   Visibility: 10mi
Dew Point: 41°   Wind: 7mph
Humidity: 48%   Direction: 270°W
Pressure: 30.09"   Gusts: NA
Location:  38.66°N, 83.76°W
Report Text: KFGX 241755Z AUTO 27006KT 10SM CLR 16/05 A3009 RMK AO2 T01600049 10168 20039
Loading
Personal Weather Stations






























Interactive Weather Map
Tropical Storm Tracking
New forecast layout! Learn more

10-Day Weather Forecast

Advertisements
Track Severe Weather on mobile